Time;durP1;ratioP1;P1;durP2;ratioP2;P2;SDS_P1;SDS_P2;PMS_P1;PMS_P2;Temp;Humidity;BMP_temperature;BMP_pressure;BME280_temperature;BME280_humidity;BME280_pressure;Samples;Min_cycle;Max_cycle;Signal;HPM_P1;HPM_P2
2021/12/02 00:01:07;;;;;;;;;;;;;;;;;;4914710;29;1071;-62
2021/12/02 00:03:34;;;;;;;;;;;;;;;;;;4914838;29;1259;-61
2021/12/02 00:05:59;;;;;;;;;;;;;;;;;;4914769;29;832;-61
2021/12/02 00:08:25;;;;;;;;;;;;;;;;;;4915011;29;834;-62
2021/12/02 00:10:50;;;;;;;;;;;;;;;;;;4914973;29;853;-61
2021/12/02 00:13:20;;;;;;;;;;;;;;;;;;4914793;29;1914;-62
2021/12/02 00:23:35;;;;;;;;;;;;;;;;;;4914447;29;608;-61
2021/12/02 00:26:02;;;;;;;;;;;;;;;;;;4914696;29;806;-61
2021/12/02 00:28:28;;;;;;;;;;;;;;;;;;4914507;29;826;-61
2021/12/02 00:30:57;;;;;;;;;;;;;;;;;;4914580;29;862;-61
2021/12/02 00:33:26;;;;;;;;;;;;;;;;;;4908819;29;1960;-61
2021/12/02 00:35:52;;;;;;;;;;;;;;;;;;4913365;29;1205;-61
2021/12/02 00:38:18;;;;;;;;;;;;;;;;;;4905964;28;1146;-61
2021/12/02 00:40:44;;;;;;;;;;;;;;;;;;4896039;29;913;-61
2021/12/02 00:43:10;;;;;;;;;;;;;;;;;;4894025;28;680;-61
2021/12/02 00:45:38;;;;;;;;;;;;;;;;;;4910187;28;870;-61
2021/12/02 00:48:04;;;;;;;;;;;;;;;;;;4894205;28;897;-61
2021/12/02 00:50:29;;;;;;;;;;;;;;;;;;4895515;28;905;-61
2021/12/02 00:52:56;;;;;;;;;;;;;;;;;;4895388;28;1898;-62
2021/12/02 00:55:23;;;;;;;;;;;;;;;;;;4910085;28;1046;-61
2021/12/02 00:57:49;;;;;;;;;;;;;;;;;;4909921;28;858;-62
2021/12/02 01:00:14;;;;;;;;;;;;;;;;;;4895155;28;838;-61
2021/12/02 01:02:42;;;;;;;;;;;;;;;;;;4895085;28;1226;-61
2021/12/02 01:05:07;;;;;;;;;;;;;;;;;;4895143;29;858;-61
2021/12/02 01:07:33;;;;;;;;;;;;;;;;;;4894238;28;1004;-61
2021/12/02 01:09:59;;;;;;;;;;;;;;;;;;4894520;28;921;-61
2021/12/02 01:12:25;;;;;;;;;;;;;;;;;;4894860;28;1906;-61
2021/12/02 01:14:50;;;;;;;;;;;;;;;;;;4893318;28;1191;-61
2021/12/02 01:17:15;;;;;;;;;;;;;;;;;;4894824;29;834;-61
2021/12/02 01:19:41;;;;;;;;;;;;;;;;;;4894709;29;858;-61
2021/12/02 01:22:07;;;;;;;;;;;;;;;;;;4894443;28;826;-61
2021/12/02 01:24:33;;;;;;;;;;;;;;;;;;4894781;28;917;-61
2021/12/02 01:27:00;;;;;;;;;;;;;;;;;;4894620;28;867;-61
2021/12/02 01:29:25;;;;;;;;;;;;;;;;;;4894489;28;858;-61
2021/12/02 01:31:52;;;;;;;;;;;;;;;;;;4909118;28;1910;-61
2021/12/02 01:34:22;;;;;;;;;;;;;;;;;;4894179;28;833;-61
2021/12/02 01:36:49;;;;;;;;;;;;;;;;;;4893465;28;956;-61
2021/12/02 01:39:15;;;;;;;;;;;;;;;;;;4894515;28;923;-61
2021/12/02 01:41:51;;;;;;;;;;;;;;;;;;4894455;29;873;-61
2021/12/02 01:44:19;;;;;;;;;;;;;;;;;;4894518;28;838;-63
2021/12/02 01:46:46;;;;;;;;;;;;;;;;;;4894722;28;866;-61
2021/12/02 01:49:12;;;;;;;;;;;;;;;;;;4894451;28;926;-62
2021/12/02 01:51:39;;;;;;;;;;;;;;;;;;4894594;28;865;-61
2021/12/02 01:54:09;;;;;;;;;;;;;;;;;;4894148;28;1950;-61
2021/12/02 01:56:52;;;;;;;;;;;;;;;;;;4894405;29;861;-61
2021/12/02 01:59:22;;;;;;;;;;;;;;;;;;4894053;28;905;-61
2021/12/02 02:01:51;;;;;;;;;;;;;;;;;;4894702;28;901;-61
2021/12/02 02:04:17;;;;;;;;;;;;;;;;;;4894432;28;1099;-61
2021/12/02 02:06:49;;;;;;;;;;;;;;;;;;4894888;28;821;-61
2021/12/02 02:09:14;;;;;;;;;;;;;;;;;;4893321;28;1236;-61
2021/12/02 02:11:39;;;;;;;;;;;;;;;;;;4894207;28;995;-61
2021/12/02 02:14:09;;;;;;;;;;;;;;;;;;4894487;29;1915;-61
2021/12/02 02:16:34;;;;;;;;;;;;;;;;;;4894197;29;953;-61
2021/12/02 02:19:00;;;;;;;;;;;;;;;;;;4908540;28;845;-61
2021/12/02 02:21:25;;;;;;;;;;;;;;;;;;4894562;29;813;-61
2021/12/02 02:23:58;;;;;;;;;;;;;;;;;;4894165;28;885;-61
2021/12/02 02:26:27;;;;;;;;;;;;;;;;;;4894043;29;911;-61
2021/12/02 02:28:54;;;;;;;;;;;;;;;;;;4894263;28;861;-61
2021/12/02 02:31:19;;;;;;;;;;;;;;;;;;4894405;28;864;-61
2021/12/02 02:33:48;;;;;;;;;;;;;;;;;;4894303;28;1964;-61
2021/12/02 02:36:14;;;;;;;;;;;;;;;;;;4894123;28;869;-61
2021/12/02 02:38:40;;;;;;;;;;;;;;;;;;4894288;28;913;-62
2021/12/02 02:41:08;;;;;;;;;;;;;;;;;;4894163;28;1056;-62
2021/12/02 02:43:34;;;;;;;;;;;;;;;;;;4893923;29;913;-62
2021/12/02 02:45:59;;;;;;;;;;;;;;;;;;4894002;28;886;-62
2021/12/02 02:48:25;;;;;;;;;;;;;;;;;;4893869;28;897;-62
2021/12/02 02:50:50;;;;;;;;;;;;;;;;;;4894190;29;818;-62
2021/12/02 02:53:20;;;;;;;;;;;;;;;;;;4893980;28;1907;-62
2021/12/02 02:56:02;;;;;;;;;;;;;;;;;;4893918;28;976;-62
2021/12/02 02:58:45;;;;;;;;;;;;;;;;;;4893601;28;826;-62
2021/12/02 03:04:09;;;;;;;;;;;;;;;;;;4893265;29;1410;-62
2021/12/02 03:09:25;;;;;;;;;;;;;;;;;;4893459;28;889;-62
2021/12/02 03:11:54;;;;;;;;;;;;;;;;;;4893051;28;1915;-62
2021/12/02 03:14:48;;;;;;;;;;;;;;;;;;4893024;28;826;-62
2021/12/02 03:17:14;;;;;;;;;;;;;;;;;;4893691;28;889;-62
2021/12/02 03:19:40;;;;;;;;;;;;;;;;;;4893010;28;834;-62
2021/12/02 03:22:06;;;;;;;;;;;;;;;;;;4893022;28;929;-62
2021/12/02 03:24:32;;;;;;;;;;;;;;;;;;4893329;29;834;-62
2021/12/02 03:26:57;;;;;;;;;;;;;;;;;;4893520;29;909;-62
2021/12/02 03:29:23;;;;;;;;;;;;;;;;;;4893430;29;869;-62
2021/12/02 03:31:48;;;;;;;;;;;;;;;;;;4894268;29;1939;-62
2021/12/02 03:34:14;;;;;;;;;;;;;;;;;;4896564;28;897;-62
2021/12/02 03:36:39;;;;;;;;;;;;;;;;;;4896018;28;791;-62
2021/12/02 03:39:06;;;;;;;;;;;;;;;;;;4896546;29;862;-61
2021/12/02 03:41:32;;;;;;;;;;;;;;;;;;4896555;29;842;-62
2021/12/02 03:43:57;;;;;;;;;;;;;;;;;;4896329;29;1036;-62
2021/12/02 03:46:24;;;;;;;;;;;;;;;;;;4911017;29;988;-61
2021/12/02 03:48:50;;;;;;;;;;;;;;;;;;4896269;29;870;-62
2021/12/02 03:51:15;;;;;;;;;;;;;;;;;;4896992;29;838;-62
2021/12/02 03:53:41;;;;;;;;;;;;;;;;;;4896430;28;1960;-62
2021/12/02 03:56:06;;;;;;;;;;;;;;;;;;4896352;28;1538;-62
2021/12/02 03:58:32;;;;;;;;;;;;;;;;;;4896247;28;846;-62
2021/12/02 04:00:58;;;;;;;;;;;;;;;;;;4896360;28;822;-60
2021/12/02 04:03:23;;;;;;;;;;;;;;;;;;4894901;29;1428;-62
2021/12/02 04:05:48;;;;;;;;;;;;;;;;;;4896219;28;1031;-62
2021/12/02 04:08:14;;;;;;;;;;;;;;;;;;4896293;28;925;-62
2021/12/02 04:10:40;;;;;;;;;;;;;;;;;;4896371;29;810;-62
2021/12/02 04:13:24;;;;;;;;;;;;;;;;;;4896235;28;1919;-62
2021/12/02 04:15:57;;;;;;;;;;;;;;;;;;4896005;29;966;-62
2021/12/02 04:18:22;;;;;;;;;;;;;;;;;;4896408;29;907;-62
2021/12/02 04:20:48;;;;;;;;;;;;;;;;;;4910673;28;926;-62
2021/12/02 04:23:13;;;;;;;;;;;;;;;;;;4894673;28;1379;-62
2021/12/02 04:25:39;;;;;;;;;;;;;;;;;;4910011;29;917;-62
2021/12/02 04:28:04;;;;;;;;;;;;;;;;;;4896050;28;830;-62
2021/12/02 04:30:29;;;;;;;;;;;;;;;;;;4894389;28;703;-62
2021/12/02 04:32:55;;;;;;;;;;;;;;;;;;4895751;28;1907;-62
2021/12/02 04:35:20;;;;;;;;;;;;;;;;;;4894558;28;870;-62
2021/12/02 04:37:51;;;;;;;;;;;;;;;;;;4895421;29;949;-62
2021/12/02 04:40:16;;;;;;;;;;;;;;;;;;4896045;28;865;-62
2021/12/02 04:42:42;;;;;;;;;;;;;;;;;;4895289;28;862;-62
2021/12/02 04:45:07;;;;;;;;;;;;;;;;;;4895074;28;918;-62
2021/12/02 04:47:33;;;;;;;;;;;;;;;;;;4895165;28;823;-62
2021/12/02 04:49:58;;;;;;;;;;;;;;;;;;4895155;29;993;-62
2021/12/02 04:52:23;;;;;;;;;;;;;;;;;;4895153;28;1994;-62
2021/12/02 04:54:49;;;;;;;;;;;;;;;;;;4895100;28;944;-62
2021/12/02 04:57:14;;;;;;;;;;;;;;;;;;4895078;29;1000;-63
2021/12/02 04:59:39;;;;;;;;;;;;;;;;;;4895014;28;877;-62
2021/12/02 05:02:04;;;;;;;;;;;;;;;;;;4894552;28;1044;-62
2021/12/02 05:04:30;;;;;;;;;;;;;;;;;;4894730;29;1108;-62
2021/12/02 05:06:55;;;;;;;;;;;;;;;;;;4893581;28;1845;-63
2021/12/02 05:09:21;;;;;;;;;;;;;;;;;;4894549;28;830;-62
2021/12/02 05:11:46;;;;;;;;;;;;;;;;;;4894762;29;981;-63
2021/12/02 05:14:11;;;;;;;;;;;;;;;;;;4893155;28;1949;-62
2021/12/02 05:16:37;;;;;;;;;;;;;;;;;;4893074;28;969;-63
2021/12/02 05:19:02;;;;;;;;;;;;;;;;;;4894848;28;886;-63
2021/12/02 05:21:28;;;;;;;;;;;;;;;;;;4894447;29;925;-63
2021/12/02 05:23:54;;;;;;;;;;;;;;;;;;4893094;28;850;-63
2021/12/02 05:26:20;;;;;;;;;;;;;;;;;;4894315;29;804;-63
2021/12/02 05:28:45;;;;;;;;;;;;;;;;;;4894110;28;922;-63
2021/12/02 05:31:10;;;;;;;;;;;;;;;;;;4894186;29;906;-63
2021/12/02 05:33:35;;;;;;;;;;;;;;;;;;4894093;29;1903;-63
2021/12/02 05:36:01;;;;;;;;;;;;;;;;;;4909033;28;838;-63
2021/12/02 05:38:26;;;;;;;;;;;;;;;;;;4894539;29;976;-63
2021/12/02 05:40:51;;;;;;;;;;;;;;;;;;4893192;29;1208;-63
2021/12/02 05:43:17;;;;;;;;;;;;;;;;;;4893306;28;1195;-63
2021/12/02 05:45:42;;;;;;;;;;;;;;;;;;4894667;28;1201;-63
2021/12/02 05:48:07;;;;;;;;;;;;;;;;;;4909080;29;814;-63
2021/12/02 05:50:32;;;;;;;;;;;;;;;;;;4894792;28;1035;-63
2021/12/02 05:52:58;;;;;;;;;;;;;;;;;;4898563;28;1965;-63
2021/12/02 05:55:23;;;;;;;;;;;;;;;;;;4912975;29;1000;-63
2021/12/02 05:57:48;;;;;;;;;;;;;;;;;;4911737;29;767;-63
2021/12/02 06:00:14;;;;;;;;;;;;;;;;;;4913825;29;767;-61
2021/12/02 06:02:39;;;;;;;;;;;;;;;;;;4913105;29;1098;-60
2021/12/02 06:05:05;;;;;;;;;;;;;;;;;;4927616;29;860;-61
2021/12/02 06:07:31;;;;;;;;;;;;;;;;;;4928645;29;881;-63
2021/12/02 06:09:56;;;;;;;;;;;;;;;;;;4911855;29;880;-63
2021/12/02 06:12:22;;;;;;;;;;;;;;;;;;4912946;29;1966;-63
2021/12/02 06:14:47;;;;;;;;;;;;;;;;;;4913276;29;1291;-63
2021/12/02 06:17:12;;;;;;;;;;;;;;;;;;4927841;29;905;-63
2021/12/02 06:19:37;;;;;;;;;;;;;;;;;;4927656;29;802;-62
2021/12/02 06:22:03;;;;;;;;;;;;;;;;;;4913164;29;849;-63
2021/12/02 06:24:42;;;;;;;;;;;;;;;;;;4912861;29;928;-63
2021/12/02 06:27:08;;;;;;;;;;;;;;;;;;4912784;29;1204;-63
2021/12/02 06:29:33;;;;;;;;;;;;;;;;;;4913341;29;767;-63
2021/12/02 06:31:58;;;;;;;;;;;;;;;;;;4912375;29;1972;-63
2021/12/02 06:34:23;;;;;;;;;;;;;;;;;;4911457;29;965;-63
2021/12/02 06:36:49;;;;;;;;;;;;;;;;;;4912514;29;1000;-63
2021/12/02 06:39:14;;;;;;;;;;;;;;;;;;4912421;29;883;-62
2021/12/02 06:41:39;;;;;;;;;;;;;;;;;;4912346;29;971;-63
2021/12/02 06:44:05;;;;;;;;;;;;;;;;;;4926844;29;826;-63
2021/12/02 06:46:30;;;;;;;;;;;;;;;;;;4927059;29;830;-63
2021/12/02 06:48:55;;;;;;;;;;;;;;;;;;4912439;29;891;-62
2021/12/02 06:51:21;;;;;;;;;;;;;;;;;;4912364;29;1007;-62
2021/12/02 06:53:48;;;;;;;;;;;;;;;;;;4910826;29;1910;-63
2021/12/02 06:56:14;;;;;;;;;;;;;;;;;;4912338;29;965;-63
2021/12/02 06:58:39;;;;;;;;;;;;;;;;;;4912315;29;1067;-62
2021/12/02 07:01:04;;;;;;;;;;;;;;;;;;4912570;29;905;-62
2021/12/02 07:03:30;;;;;;;;;;;;;;;;;;4912304;29;1102;-62
2021/12/02 07:05:55;;;;;;;;;;;;;;;;;;4911357;29;775;-62
2021/12/02 07:08:21;;;;;;;;;;;;;;;;;;4912269;29;822;-62
2021/12/02 07:10:46;;;;;;;;;;;;;;;;;;4912547;29;842;-62
2021/12/02 07:13:12;;;;;;;;;;;;;;;;;;4911988;29;1910;-62
2021/12/02 07:15:43;;;;;;;;;;;;;;;;;;4912098;29;866;-63
2021/12/02 07:18:15;;;;;;;;;;;;;;;;;;4911551;29;831;-62
2021/12/02 07:20:41;;;;;;;;;;;;;;;;;;4911759;29;968;-63
2021/12/02 07:23:07;;;;;;;;;;;;;;;;;;4912046;28;834;-63
2021/12/02 07:25:32;;;;;;;;;;;;;;;;;;4911768;29;831;-61
2021/12/02 07:27:58;;;;;;;;;;;;;;;;;;4911722;28;825;-61
2021/12/02 07:30:23;;;;;;;;;;;;;;;;;;4911840;29;842;-61
2021/12/02 07:32:53;;;;;;;;;;;;;;;;;;4925939;29;1958;-61
2021/12/02 07:35:19;;;;;;;;;;;;;;;;;;4911516;29;842;-61
2021/12/02 07:37:46;;;;;;;;;;;;;;;;;;4911894;29;932;-61
2021/12/02 07:40:12;;;;;;;;;;;;;;;;;;4911742;29;934;-61
2021/12/02 07:42:38;;;;;;;;;;;;;;;;;;4912246;29;857;-61
2021/12/02 07:45:04;;;;;;;;;;;;;;;;;;4911491;29;967;-61
2021/12/02 07:47:30;;;;;;;;;;;;;;;;;;4910999;29;932;-62
2021/12/02 07:49:55;;;;;;;;;;;;;;;;;;4911513;29;841;-61
2021/12/02 07:52:23;;;;;;;;;;;;;;;;;;4911601;29;1965;-61
2021/12/02 07:54:52;;;;;;;;;;;;;;;;;;4911886;29;989;-61
2021/12/02 07:57:18;;;;;;;;;;;;;;;;;;4912066;29;856;-61
2021/12/02 07:59:44;;;;;;;;;;;;;;;;;;4910585;29;1424;-61
2021/12/02 08:02:14;;;;;;;;;;;;;;;;;;4911814;28;919;-61
2021/12/02 08:04:40;;;;;;;;;;;;;;;;;;4912020;29;1371;-61
2021/12/02 08:07:05;;;;;;;;;;;;;;;;;;4911546;29;868;-61
2021/12/02 08:09:30;;;;;;;;;;;;;;;;;;4910565;29;1538;-61
2021/12/02 08:11:59;;;;;;;;;;;;;;;;;;4911455;29;877;-61
2021/12/02 08:14:24;;;;;;;;;;;;;;;;;;4911622;29;904;-61
2021/12/02 08:16:49;;;;;;;;;;;;;;;;;;4910642;29;952;-61
2021/12/02 08:19:14;;;;;;;;;;;;;;;;;;4915036;29;834;-61
2021/12/02 08:21:40;;;;;;;;;;;;;;;;;;4914961;29;877;-61
2021/12/02 08:24:05;;;;;;;;;;;;;;;;;;4914669;29;1013;-62
2021/12/02 08:26:31;;;;;;;;;;;;;;;;;;4914818;29;756;-62
2021/12/02 08:28:57;;;;;;;;;;;;;;;;;;4914439;29;1061;-62
2021/12/02 08:31:22;;;;;;;;;;;;;;;;;;4914593;29;921;-61
2021/12/02 08:33:50;;;;;;;;;;;;;;;;;;4928825;29;1912;-61
2021/12/02 08:36:15;;;;;;;;;;;;;;;;;;4914386;29;889;-61
2021/12/02 08:38:40;;;;;;;;;;;;;;;;;;4913240;29;1225;-61
2021/12/02 08:41:05;;;;;;;;;;;;;;;;;;4914050;29;948;-61
2021/12/02 08:43:31;;;;;;;;;;;;;;;;;;4914240;29;897;-61
2021/12/02 08:45:56;;;;;;;;;;;;;;;;;;4914092;29;964;-61
2021/12/02 08:48:22;;;;;;;;;;;;;;;;;;4914067;29;881;-61
2021/12/02 08:50:47;;;;;;;;;;;;;;;;;;4914129;29;900;-61
2021/12/02 08:53:13;;;;;;;;;;;;;;;;;;4912928;29;1907;-61
2021/12/02 08:55:38;;;;;;;;;;;;;;;;;;4914354;29;956;-61
2021/12/02 08:58:06;;;;;;;;;;;;;;;;;;4914257;29;904;-61
2021/12/02 09:00:34;;;;;;;;;;;;;;;;;;4914076;29;927;-61
2021/12/02 09:02:59;;;;;;;;;;;;;;;;;;4913559;29;1269;-61
2021/12/02 09:05:25;;;;;;;;;;;;;;;;;;4912002;29;1638;-61
2021/12/02 09:07:51;;;;;;;;;;;;;;;;;;4913889;29;822;-61
2021/12/02 09:10:16;;;;;;;;;;;;;;;;;;4913907;29;854;-61
2021/12/02 09:12:42;;;;;;;;;;;;;;;;;;4913726;29;1911;-61
2021/12/02 09:15:08;;;;;;;;;;;;;;;;;;4914216;29;889;-61
2021/12/02 09:17:35;;;;;;;;;;;;;;;;;;4913276;29;869;-61
2021/12/02 09:20:00;;;;;;;;;;;;;;;;;;4913460;29;941;-61
2021/12/02 09:22:25;;;;;;;;;;;;;;;;;;4913287;29;941;-61
2021/12/02 09:24:50;;;;;;;;;;;;;;;;;;4913732;29;1067;-61
2021/12/02 09:27:16;;;;;;;;;;;;;;;;;;4913387;29;877;-61
2021/12/02 09:29:41;;;;;;;;;;;;;;;;;;4912722;29;911;-61
2021/12/02 09:32:06;;;;;;;;;;;;;;;;;;4927781;29;1899;-61
2021/12/02 09:34:32;;;;;;;;;;;;;;;;;;4913423;29;936;-61
2021/12/02 09:36:57;;;;;;;;;;;;;;;;;;4928420;28;813;-61
2021/12/02 09:39:29;;;;;;;;;;;;;;;;;;4912343;29;1208;-61
2021/12/02 09:41:55;;;;;;;;;;;;;;;;;;4912984;29;920;-61
2021/12/02 09:44:20;;;;;;;;;;;;;;;;;;4913626;29;917;-61
2021/12/02 09:46:45;;;;;;;;;;;;;;;;;;4913634;29;913;-61
2021/12/02 09:49:11;;;;;;;;;;;;;;;;;;4913130;29;1092;-61
2021/12/02 09:54:14;;;;;;;;;;;;;;;;;;4913431;29;1895;-61
2021/12/02 09:56:42;;;;;;;;;;;;;;;;;;4912084;29;1295;-61
2021/12/02 09:59:11;;;;;;;;;;;;;;;;;;4913309;29;859;-61
2021/12/02 10:01:50;;;;;;;;;;;;;;;;;;4914026;29;874;-61
2021/12/02 10:04:15;;;;;;;;;;;;;;;;;;4913298;29;1327;-61
2021/12/02 10:06:42;;;;;;;;;;;;;;;;;;4928234;29;783;-61
2021/12/02 10:09:38;;;;;;;;;;;;;;;;;;4913614;29;882;-61
2021/12/02 10:12:11;;;;;;;;;;;;;;;;;;4912021;29;1918;-61
2021/12/02 10:14:38;;;;;;;;;;;;;;;;;;4926847;29;837;-61
2021/12/02 10:17:06;;;;;;;;;;;;;;;;;;4912858;29;953;-61
2021/12/02 10:19:31;;;;;;;;;;;;;;;;;;4913173;29;822;-61
2021/12/02 10:22:22;;;;;;;;;;;;;;;;;;4927555;29;846;-61
2021/12/02 10:24:43;;;;;;;;;;;;;;;;;;4913559;28;1391;-61
2021/12/02 10:27:09;;;;;;;;;;;;;;;;;;4912761;29;849;-61
2021/12/02 10:29:35;;;;;;;;;;;;;;;;;;4912996;29;869;-61
2021/12/02 10:32:09;;;;;;;;;;;;;;;;;;4911359;29;1197;-61
2021/12/02 10:34:47;;;;;;;;;;;;;;;;;;4912469;29;1228;-61
2021/12/02 10:37:13;;;;;;;;;;;;;;;;;;4912044;29;870;-61
2021/12/02 10:39:38;;;;;;;;;;;;;;;;;;4912582;29;834;-61
2021/12/02 10:42:05;;;;;;;;;;;;;;;;;;4912021;29;1004;-61
2021/12/02 10:44:34;;;;;;;;;;;;;;;;;;4912180;29;923;-61
2021/12/02 10:47:04;;;;;;;;;;;;;;;;;;4912424;29;843;-61
2021/12/02 10:49:32;;;;;;;;;;;;;;;;;;4911903;29;900;-61
2021/12/02 10:51:58;;;;;;;;;;;;;;;;;;4912122;29;877;-61
2021/12/02 10:54:28;;;;;;;;;;;;;;;;;;4912111;29;1906;-61
2021/12/02 10:56:55;;;;;;;;;;;;;;;;;;4912389;29;923;-61
2021/12/02 10:59:23;;;;;;;;;;;;;;;;;;4911600;29;790;-61
2021/12/02 11:01:49;;;;;;;;;;;;;;;;;;4912266;29;823;-61
2021/12/02 11:04:14;;;;;;;;;;;;;;;;;;4911795;29;1235;-61
2021/12/02 11:06:43;;;;;;;;;;;;;;;;;;4912183;29;849;-61
2021/12/02 11:09:24;;;;;;;;;;;;;;;;;;4911661;29;647;-61
2021/12/02 11:12:08;;;;;;;;;;;;;;;;;;4912209;29;908;-60
2021/12/02 11:14:39;;;;;;;;;;;;;;;;;;4911929;29;1163;-60
2021/12/02 11:17:08;;;;;;;;;;;;;;;;;;4912061;29;786;-61
2021/12/02 11:19:34;;;;;;;;;;;;;;;;;;4911821;29;896;-61
2021/12/02 11:22:12;;;;;;;;;;;;;;;;;;4912246;29;881;-61
2021/12/02 11:24:38;;;;;;;;;;;;;;;;;;4911711;29;853;-60
2021/12/02 11:27:07;;;;;;;;;;;;;;;;;;4911665;29;818;-61
2021/12/02 11:29:49;;;;;;;;;;;;;;;;;;4912051;29;771;-60
2021/12/02 11:32:24;;;;;;;;;;;;;;;;;;4911718;29;1899;-61
2021/12/02 11:35:09;;;;;;;;;;;;;;;;;;4912367;29;948;-60
2021/12/02 11:37:36;;;;;;;;;;;;;;;;;;4912452;29;852;-60
2021/12/02 11:40:04;;;;;;;;;;;;;;;;;;4912087;29;842;-60
2021/12/02 11:42:29;;;;;;;;;;;;;;;;;;4912583;28;839;-60
2021/12/02 11:44:54;;;;;;;;;;;;;;;;;;4912580;29;872;-60
2021/12/02 11:47:19;;;;;;;;;;;;;;;;;;4912168;29;825;-60
2021/12/02 11:49:45;;;;;;;;;;;;;;;;;;4912578;29;865;-60
2021/12/02 11:52:10;;;;;;;;;;;;;;;;;;4912225;29;1890;-60
2021/12/02 11:54:36;;;;;;;;;;;;;;;;;;4916173;29;1005;-60
2021/12/02 11:57:03;;;;;;;;;;;;;;;;;;4915208;29;947;-60
2021/12/02 11:59:28;;;;;;;;;;;;;;;;;;4915434;29;988;-60
2021/12/02 12:01:57;;;;;;;;;;;;;;;;;;4915673;29;803;-60
2021/12/02 12:04:22;;;;;;;;;;;;;;;;;;4929101;29;1122;-60
2021/12/02 12:07:08;;;;;;;;;;;;;;;;;;4915605;29;972;-60
2021/12/02 12:09:33;;;;;;;;;;;;;;;;;;4914425;29;2081;-60
2021/12/02 12:11:59;;;;;;;;;;;;;;;;;;4913206;29;1363;-60
2021/12/02 12:14:36;;;;;;;;;;;;;;;;;;4914436;29;1911;-60
2021/12/02 12:17:06;;;;;;;;;;;;;;;;;;4915033;29;822;-60
2021/12/02 12:19:33;;;;;;;;;;;;;;;;;;4914767;29;1062;-60
2021/12/02 12:22:00;;;;;;;;;;;;;;;;;;4914691;29;1014;-60
2021/12/02 12:24:38;;;;;;;;;;;;;;;;;;4913826;29;1019;-60
2021/12/02 12:27:20;;;;;;;;;;;;;;;;;;4913096;29;1180;-60
2021/12/02 12:29:48;;;;;;;;;;;;;;;;;;4914738;29;865;-60
2021/12/02 12:32:29;;;;;;;;;;;;;;;;;;4929052;29;1902;-60
2021/12/02 12:35:02;;;;;;;;;;;;;;;;;;4914170;29;826;-60
2021/12/02 12:37:35;;;;;;;;;;;;;;;;;;4914158;29;1417;-60
2021/12/02 12:40:04;;;;;;;;;;;;;;;;;;4914265;29;912;-60
2021/12/02 12:42:29;;;;;;;;;;;;;;;;;;4913444;29;939;-60
2021/12/02 12:44:58;;;;;;;;;;;;;;;;;;4914283;29;925;-60
2021/12/02 12:47:42;;;;;;;;;;;;;;;;;;4913998;29;818;-60
2021/12/02 12:50:39;;;;;;;;;;;;;;;;;;4913634;29;862;-60
2021/12/02 12:53:04;;;;;;;;;;;;;;;;;;4901388;29;1902;-60
2021/12/02 12:55:31;;;;;;;;;;;;;;;;;;4913604;29;1026;-60
2021/12/02 12:58:08;;;;;;;;;;;;;;;;;;4913395;29;1140;-61
2021/12/02 13:00:54;;;;;;;;;;;;;;;;;;4912033;29;846;-60
2021/12/02 13:03:28;;;;;;;;;;;;;;;;;;4907642;29;1144;-61
2021/12/02 13:06:10;;;;;;;;;;;;;;;;;;4912545;29;874;-61
2021/12/02 13:08:56;;;;;;;;;;;;;;;;;;4914491;29;1678;-61
2021/12/02 13:11:24;;;;;;;;;;;;;;;;;;4913410;29;771;-61
2021/12/02 13:13:50;;;;;;;;;;;;;;;;;;4913785;29;1972;-61
2021/12/02 13:16:16;;;;;;;;;;;;;;;;;;4913810;29;1182;-61
2021/12/02 13:18:42;;;;;;;;;;;;;;;;;;4913939;29;1180;-61
2021/12/02 13:21:21;;;;;;;;;;;;;;;;;;4914432;29;920;-61
2021/12/02 13:23:53;;;;;;;;;;;;;;;;;;4914438;29;849;-61
2021/12/02 13:26:19;;;;;;;;;;;;;;;;;;4913417;29;806;-60
2021/12/02 13:28:45;;;;;;;;;;;;;;;;;;4914266;29;1085;-61
2021/12/02 13:31:13;;;;;;;;;;;;;;;;;;4913734;29;924;-60
2021/12/02 13:33:41;;;;;;;;;;;;;;;;;;4913686;29;1958;-60
2021/12/02 13:36:08;;;;;;;;;;;;;;;;;;4913983;29;802;-60
2021/12/02 13:38:34;;;;;;;;;;;;;;;;;;4913791;29;794;-60
2021/12/02 13:41:11;;;;;;;;;;;;;;;;;;4927706;29;1200;-60
2021/12/02 13:43:50;;;;;;;;;;;;;;;;;;4912770;29;1168;-60
2021/12/02 13:46:15;;;;;;;;;;;;;;;;;;4912815;29;1181;-60
2021/12/02 13:48:51;;;;;;;;;;;;;;;;;;4913224;29;818;-60
2021/12/02 13:54:16;;;;;;;;;;;;;;;;;;4913177;29;1921;-60
2021/12/02 13:56:41;;;;;;;;;;;;;;;;;;4913727;29;867;-60
2021/12/02 13:59:19;;;;;;;;;;;;;;;;;;4913327;29;885;-60
2021/12/02 14:01:48;;;;;;;;;;;;;;;;;;4913497;29;799;-60
2021/12/02 14:04:13;;;;;;;;;;;;;;;;;;4911328;28;1770;-61
2021/12/02 14:06:38;;;;;;;;;;;;;;;;;;4913417;29;949;-61
2021/12/02 14:09:12;;;;;;;;;;;;;;;;;;4913170;29;1005;-61
2021/12/02 14:11:37;;;;;;;;;;;;;;;;;;4913098;29;952;-61
2021/12/02 14:14:02;;;;;;;;;;;;;;;;;;4911305;29;1910;-61
2021/12/02 14:16:28;;;;;;;;;;;;;;;;;;4912206;29;846;-61
2021/12/02 14:18:58;;;;;;;;;;;;;;;;;;4912987;29;1004;-61
2021/12/02 14:21:24;;;;;;;;;;;;;;;;;;4912554;29;1634;-61
2021/12/02 14:23:50;;;;;;;;;;;;;;;;;;4912560;29;841;-61
2021/12/02 14:26:16;;;;;;;;;;;;;;;;;;4912926;29;855;-61
2021/12/02 14:28:42;;;;;;;;;;;;;;;;;;4912700;28;653;-61
2021/12/02 14:31:08;;;;;;;;;;;;;;;;;;4911187;29;2594;-61
2021/12/02 14:33:35;;;;;;;;;;;;;;;;;;4912441;29;1949;-61
2021/12/02 14:36:14;;;;;;;;;;;;;;;;;;4912920;29;1004;-61
2021/12/02 14:38:47;;;;;;;;;;;;;;;;;;4911056;29;854;-61
2021/12/02 14:41:15;;;;;;;;;;;;;;;;;;4911728;29;878;-61
2021/12/02 14:43:46;;;;;;;;;;;;;;;;;;4910782;29;1311;-61
2021/12/02 14:46:13;;;;;;;;;;;;;;;;;;4912047;29;854;-61
2021/12/02 14:48:38;;;;;;;;;;;;;;;;;;4911704;29;1059;-61
2021/12/02 14:51:09;;;;;;;;;;;;;;;;;;4911819;29;886;-61
2021/12/02 14:53:39;;;;;;;;;;;;;;;;;;4926523;29;1895;-61
2021/12/02 14:56:20;;;;;;;;;;;;;;;;;;4912554;29;1086;-61
2021/12/02 14:59:08;;;;;;;;;;;;;;;;;;4912451;29;802;-61
2021/12/02 15:01:34;;;;;;;;;;;;;;;;;;4909135;29;1435;-61
2021/12/02 15:04:18;;;;;;;;;;;;;;;;;;4912635;29;1194;-61
2021/12/02 15:06:44;;;;;;;;;;;;;;;;;;4913079;29;834;-61
2021/12/02 15:09:28;;;;;;;;;;;;;;;;;;4912434;29;747;-61
2021/12/02 15:11:53;;;;;;;;;;;;;;;;;;4912725;29;794;-61
2021/12/02 15:14:31;;;;;;;;;;;;;;;;;;4910642;29;1923;-61
2021/12/02 15:16:56;;;;;;;;;;;;;;;;;;4912569;29;833;-61
2021/12/02 15:19:51;;;;;;;;;;;;;;;;;;4911986;29;849;-61
2021/12/02 15:22:25;;;;;;;;;;;;;;;;;;4907717;28;1315;-61
2021/12/02 15:24:51;;;;;;;;;;;;;;;;;;4911039;29;1255;-62
2021/12/02 15:27:16;;;;;;;;;;;;;;;;;;4913322;29;839;-61
2021/12/02 15:29:46;;;;;;;;;;;;;;;;;;4915481;29;841;-61
2021/12/02 15:32:11;;;;;;;;;;;;;;;;;;4915220;29;885;-62
2021/12/02 15:34:37;;;;;;;;;;;;;;;;;;4929673;29;1899;-61
2021/12/02 15:37:02;;;;;;;;;;;;;;;;;;4915256;29;842;-61
2021/12/02 15:39:27;;;;;;;;;;;;;;;;;;4914749;29;849;-61
2021/12/02 15:41:54;;;;;;;;;;;;;;;;;;4914072;29;702;-61
2021/12/02 15:44:24;;;;;;;;;;;;;;;;;;4914864;29;909;-61
2021/12/02 15:46:55;;;;;;;;;;;;;;;;;;4929535;29;857;-61
2021/12/02 15:49:20;;;;;;;;;;;;;;;;;;4914792;29;921;-61
2021/12/02 15:51:47;;;;;;;;;;;;;;;;;;4914995;29;829;-61
2021/12/02 15:54:12;;;;;;;;;;;;;;;;;;4914100;29;2041;-61
2021/12/02 15:56:38;;;;;;;;;;;;;;;;;;4914500;29;901;-61
2021/12/02 15:59:03;;;;;;;;;;;;;;;;;;4915022;29;930;-61
2021/12/02 16:01:32;;;;;;;;;;;;;;;;;;4915053;29;869;-61
2021/12/02 16:04:03;;;;;;;;;;;;;;;;;;4913348;29;1403;-61
2021/12/02 16:09:41;;;;;;;;;;;;;;;;;;4915395;29;636;-61
2021/12/02 16:14:41;;;;;;;;;;;;;;;;;;4914356;29;1887;-61
2021/12/02 16:17:07;;;;;;;;;;;;;;;;;;4913501;29;1202;-61
2021/12/02 16:19:32;;;;;;;;;;;;;;;;;;4914409;29;1051;-61
2021/12/02 16:21:57;;;;;;;;;;;;;;;;;;4914981;29;905;-61
2021/12/02 16:24:22;;;;;;;;;;;;;;;;;;4914220;29;865;-61
2021/12/02 16:26:48;;;;;;;;;;;;;;;;;;4915309;29;771;-61
2021/12/02 16:29:13;;;;;;;;;;;;;;;;;;4913619;29;1382;-61
2021/12/02 16:31:39;;;;;;;;;;;;;;;;;;4928801;29;1240;-61
2021/12/02 16:34:04;;;;;;;;;;;;;;;;;;4914672;29;1958;-61
2021/12/02 16:36:30;;;;;;;;;;;;;;;;;;4914448;29;764;-61
2021/12/02 16:39:01;;;;;;;;;;;;;;;;;;4929471;29;854;-61
2021/12/02 16:41:27;;;;;;;;;;;;;;;;;;4914334;29;919;-61
2021/12/02 16:43:52;;;;;;;;;;;;;;;;;;4912917;29;1252;-61
2021/12/02 16:46:17;;;;;;;;;;;;;;;;;;4914393;29;826;-61
2021/12/02 16:48:42;;;;;;;;;;;;;;;;;;4914250;29;866;-61
2021/12/02 16:51:08;;;;;;;;;;;;;;;;;;4914363;29;897;-61
2021/12/02 16:53:36;;;;;;;;;;;;;;;;;;4914329;29;1903;-61
2021/12/02 16:56:02;;;;;;;;;;;;;;;;;;4928332;29;1028;-61
2021/12/02 16:58:27;;;;;;;;;;;;;;;;;;4913951;29;1160;-61
2021/12/02 17:00:52;;;;;;;;;;;;;;;;;;4914383;29;955;-61
2021/12/02 17:03:19;;;;;;;;;;;;;;;;;;4914198;29;1236;-61
2021/12/02 17:05:45;;;;;;;;;;;;;;;;;;4914177;29;1268;-61
2021/12/02 17:08:11;;;;;;;;;;;;;;;;;;4914260;29;834;-61
2021/12/02 17:10:37;;;;;;;;;;;;;;;;;;4913633;29;870;-62
2021/12/02 17:13:02;;;;;;;;;;;;;;;;;;4913850;29;1907;-61
2021/12/02 17:15:29;;;;;;;;;;;;;;;;;;4913758;29;1023;-61
2021/12/02 17:17:55;;;;;;;;;;;;;;;;;;4912437;28;1275;-61
2021/12/02 17:20:24;;;;;;;;;;;;;;;;;;4913853;29;1019;-61
2021/12/02 17:22:50;;;;;;;;;;;;;;;;;;4913875;29;865;-61
2021/12/02 17:25:15;;;;;;;;;;;;;;;;;;4914153;29;959;-61
2021/12/02 17:27:41;;;;;;;;;;;;;;;;;;4913672;29;915;-61
2021/12/02 17:30:07;;;;;;;;;;;;;;;;;;4914290;29;795;-61
2021/12/02 17:32:33;;;;;;;;;;;;;;;;;;4913748;29;1965;-62
2021/12/02 17:34:58;;;;;;;;;;;;;;;;;;4914036;29;980;-61
2021/12/02 17:37:24;;;;;;;;;;;;;;;;;;4913835;29;834;-61
2021/12/02 17:39:49;;;;;;;;;;;;;;;;;;4913744;29;830;-60
2021/12/02 17:42:16;;;;;;;;;;;;;;;;;;4914437;29;877;-60
2021/12/02 17:44:45;;;;;;;;;;;;;;;;;;4913511;29;917;-61